createdAt,value
2023-02-11T00:02:56.191Z,1.13
2023-02-11T00:06:01.732Z,1.27
2023-02-11T00:09:07.711Z,1.20
2023-02-11T00:12:13.944Z,1.13
2023-02-11T00:15:19.244Z,1.40
2023-02-11T00:18:24.260Z,1.47
2023-02-11T00:21:29.412Z,1.47
2023-02-11T00:24:34.574Z,1.30
2023-02-11T00:27:41.083Z,1.40
2023-02-11T00:30:46.344Z,1.73
2023-02-11T00:33:51.641Z,1.63
2023-02-11T00:36:57.122Z,1.80
2023-02-11T00:40:04.390Z,1.87
2023-02-11T00:43:14.415Z,1.67
2023-02-11T00:46:21.145Z,1.77
2023-02-11T00:49:26.519Z,1.90
2023-02-11T00:52:31.415Z,2.13
2023-02-11T00:55:36.750Z,1.80
2023-02-11T00:58:43.428Z,2.10
2023-02-11T01:01:48.623Z,2.20
2023-02-11T01:04:53.871Z,1.93
2023-02-11T01:07:59.037Z,2.17
2023-02-11T01:11:05.237Z,2.50
2023-02-11T01:14:12.503Z,2.40
2023-02-11T01:17:17.802Z,2.80
2023-02-11T01:20:25.255Z,3.10
2023-02-11T01:23:30.378Z,3.07
2023-02-11T01:26:36.034Z,3.10
2023-02-11T01:29:42.549Z,2.77
2023-02-11T01:32:47.742Z,3.03
2023-02-11T01:35:53.189Z,2.90
2023-02-11T01:38:58.513Z,2.93
2023-02-11T01:42:03.560Z,3.03
2023-02-11T01:45:53.783Z,2.80
2023-02-11T01:49:03.172Z,2.43
2023-02-11T01:52:12.094Z,2.77
2023-02-11T01:55:34.953Z,2.63
2023-02-11T01:58:42.502Z,2.67
2023-02-11T02:01:52.677Z,2.90
2023-02-11T02:05:05.163Z,2.40
2023-02-11T02:08:15.963Z,2.67
2023-02-11T02:11:21.252Z,2.47
2023-02-11T02:14:27.572Z,2.63
2023-02-11T02:17:39.342Z,2.70
2023-02-11T02:21:19.543Z,2.73
2023-02-11T02:24:39.365Z,2.80
2023-02-11T02:27:50.328Z,3.13
2023-02-11T02:31:27.562Z,3.23
2023-02-11T02:34:38.229Z,3.03
2023-02-11T02:37:49.834Z,3.23
2023-02-11T02:41:02.669Z,3.30
2023-02-11T02:44:09.859Z,2.67
2023-02-11T02:47:15.134Z,2.93
2023-02-11T02:50:30.199Z,3.00
2023-02-11T02:53:46.493Z,2.97
2023-02-11T02:56:56.045Z,2.87
2023-02-11T03:00:19.749Z,3.07
2023-02-11T03:03:31.592Z,2.63
2023-02-11T03:06:48.154Z,2.43
2023-02-11T03:09:56.512Z,2.70
2023-02-11T03:13:02.238Z,2.63
2023-02-11T03:16:11.676Z,2.37
2023-02-11T03:19:20.503Z,2.50
2023-02-11T03:22:29.395Z,2.53
2023-02-11T03:25:38.470Z,3.30
2023-02-11T03:28:47.146Z,3.30
2023-02-11T03:31:57.731Z,2.60
2023-02-11T03:35:05.775Z,3.70
2023-02-11T03:38:17.613Z,3.67
2023-02-11T03:41:25.642Z,2.57
2023-02-11T03:44:36.173Z,2.53
2023-02-11T03:47:45.382Z,1.50
2023-02-11T03:50:51.042Z,1.27
2023-02-11T03:53:58.594Z,1.30
2023-02-11T03:57:04.699Z,1.40
2023-02-11T04:00:11.825Z,1.50
2023-02-11T04:03:17.647Z,1.10
2023-02-11T04:06:22.781Z,1.00
2023-02-11T04:09:29.190Z,1.00
2023-02-11T04:12:34.620Z,1.20
2023-02-11T04:15:39.541Z,1.03
2023-02-11T04:18:44.585Z,1.10
2023-02-11T04:21:49.402Z,1.03
2023-02-11T04:24:55.904Z,1.00
2023-02-11T04:28:01.303Z,0.90
2023-02-11T04:31:06.867Z,1.00
2023-02-11T04:34:13.222Z,0.90
2023-02-11T04:37:18.282Z,1.00
2023-02-11T04:40:24.875Z,1.13
2023-02-11T04:43:30.321Z,1.30
2023-02-11T04:46:35.062Z,0.80
2023-02-11T04:49:40.725Z,0.93
2023-02-11T04:52:45.958Z,1.03
2023-02-11T04:55:53.053Z,0.93
2023-02-11T04:58:57.963Z,0.90
2023-02-11T05:02:04.561Z,1.10
2023-02-11T05:05:09.639Z,1.10
2023-02-11T05:08:15.206Z,1.20
2023-02-11T05:11:23.892Z,1.03
2023-02-11T05:14:29.425Z,1.10
2023-02-11T05:17:34.621Z,1.00
2023-02-11T05:20:40.228Z,1.13
2023-02-11T05:23:45.425Z,1.03
2023-02-11T05:26:51.939Z,0.87
2023-02-11T05:29:57.407Z,0.87
2023-02-11T05:33:02.281Z,0.87
2023-02-11T05:36:09.550Z,1.10
2023-02-11T05:39:14.794Z,0.90
2023-02-11T05:42:21.394Z,0.80
2023-02-11T05:45:26.839Z,0.90
2023-02-11T05:48:31.681Z,1.10
2023-02-11T05:51:36.835Z,1.07
2023-02-11T05:54:42.042Z,1.27
2023-02-11T05:57:48.595Z,1.00
2023-02-11T06:00:53.672Z,0.90
2023-02-11T06:03:59.118Z,0.97
2023-02-11T06:07:04.576Z,0.90
2023-02-11T06:10:11.506Z,1.20
2023-02-11T06:13:18.803Z,1.20
2023-02-11T06:16:24.077Z,1.37
2023-02-11T06:19:29.374Z,1.20
2023-02-11T06:22:35.181Z,0.83
2023-02-11T06:25:40.352Z,0.97
2023-02-11T06:28:46.936Z,0.90
2023-02-11T06:31:52.326Z,1.10
2023-02-11T06:34:57.772Z,1.10
2023-02-11T06:38:02.558Z,1.00
2023-02-11T06:41:07.714Z,1.30
2023-02-11T06:44:15.254Z,1.10
2023-02-11T06:47:20.744Z,1.60
2023-02-11T06:50:25.562Z,1.13
2023-02-11T06:53:31.050Z,1.10
2023-02-11T06:56:36.975Z,1.10
2023-02-11T06:59:43.620Z,1.17
2023-02-11T07:02:48.768Z,1.10
2023-02-11T07:05:53.809Z,1.20
2023-02-11T07:08:58.975Z,1.30
2023-02-11T07:12:03.803Z,1.53
2023-02-11T07:15:10.994Z,1.20
2023-02-11T07:18:16.418Z,1.37
2023-02-11T07:21:24.332Z,1.23
2023-02-11T07:24:29.478Z,1.37
2023-02-11T07:27:34.732Z,1.20
2023-02-11T07:30:41.289Z,1.27
2023-02-11T07:33:46.933Z,1.33
2023-02-11T07:36:52.268Z,1.30
2023-02-11T07:39:57.618Z,1.37
2023-02-11T07:43:03.175Z,1.30
2023-02-11T07:46:19.708Z,1.30
2023-02-11T07:49:26.061Z,1.33
2023-02-11T07:52:31.950Z,1.70
2023-02-11T07:55:37.089Z,1.50
2023-02-11T07:58:43.223Z,1.63
2023-02-11T08:01:51.473Z,1.20
2023-02-11T08:04:56.687Z,1.70
2023-02-11T08:08:02.040Z,1.47
2023-02-11T08:11:11.252Z,1.60
2023-02-11T08:14:20.557Z,1.57
2023-02-11T08:17:26.815Z,1.70
2023-02-11T08:20:32.501Z,1.67
2023-02-11T08:23:38.367Z,1.40
2023-02-11T08:26:44.613Z,1.20
2023-02-11T08:29:49.676Z,1.60
2023-02-11T08:32:56.545Z,1.60
2023-02-11T08:36:01.961Z,1.53
2023-02-11T08:39:18.661Z,1.83
2023-02-11T08:42:24.995Z,1.80
2023-02-11T08:45:30.336Z,1.63
2023-02-11T08:48:37.002Z,1.33
2023-02-11T08:51:43.415Z,1.40
2023-02-11T08:54:48.463Z,1.90
2023-02-11T08:57:53.640Z,1.50
2023-02-11T09:00:58.580Z,1.50
2023-02-11T09:04:05.428Z,1.67
2023-02-11T09:07:13.809Z,1.50
2023-02-11T09:10:20.995Z,1.60
2023-02-11T09:13:25.961Z,1.70
2023-02-11T09:16:34.452Z,11.73
2023-02-11T09:19:40.965Z,6.63
2023-02-11T09:22:46.454Z,4.90
2023-02-11T09:25:51.904Z,2.20
2023-02-11T09:28:58.724Z,2.30
2023-02-11T09:32:03.925Z,4.30
2023-02-11T09:35:10.930Z,1.40
2023-02-11T09:38:18.449Z,1.63
2023-02-11T09:41:38.852Z,2.07
2023-02-11T09:44:46.679Z,1.70
2023-02-11T09:47:55.760Z,1.40
2023-02-11T09:51:05.252Z,1.57
2023-02-11T09:54:17.003Z,1.70
2023-02-11T09:57:28.530Z,1.57
2023-02-11T10:00:41.093Z,1.50
2023-02-11T10:04:04.241Z,1.90
2023-02-11T10:07:17.403Z,1.83
2023-02-11T10:10:38.043Z,1.70
2023-02-11T10:13:52.684Z,1.40
2023-02-11T10:17:05.782Z,1.77
2023-02-11T10:20:25.701Z,1.63
2023-02-11T10:23:36.592Z,2.23
2023-02-11T10:26:42.688Z,3.10
2023-02-11T10:29:52.513Z,3.30
2023-02-11T10:33:01.615Z,1.90
2023-02-11T10:36:08.087Z,1.87
2023-02-11T10:39:17.613Z,1.80
2023-02-11T10:42:22.499Z,2.93
2023-02-11T10:45:33.579Z,2.10
2023-02-11T10:48:41.461Z,2.17
2023-02-11T10:51:47.492Z,1.70
2023-02-11T10:55:02.603Z,1.90
2023-02-11T10:58:08.087Z,1.83
2023-02-11T11:01:24.301Z,2.10
2023-02-11T11:04:45.062Z,1.90
2023-02-11T11:07:57.718Z,1.53
2023-02-11T11:11:08.374Z,1.50
2023-02-11T11:14:26.093Z,2.13
2023-02-11T11:17:31.999Z,1.70
2023-02-11T11:20:38.051Z,1.80
2023-02-11T11:23:53.078Z,1.90
2023-02-11T11:27:01.885Z,1.73
2023-02-11T11:30:13.030Z,1.47
2023-02-11T11:33:23.270Z,2.03
2023-02-11T11:36:35.824Z,1.80
2023-02-11T11:39:41.574Z,1.50
2023-02-11T11:42:48.695Z,1.60
2023-02-11T11:45:58.355Z,1.70
2023-02-11T11:49:16.159Z,2.80
2023-02-11T11:52:34.635Z,2.33
2023-02-11T11:55:44.433Z,1.90
2023-02-11T11:58:51.583Z,1.83
2023-02-11T12:02:13.280Z,1.60
2023-02-11T12:05:26.079Z,1.70
2023-02-11T12:08:40.692Z,1.73
2023-02-11T12:12:13.654Z,1.97
2023-02-11T12:15:29.793Z,2.20
2023-02-11T12:19:01.243Z,1.70
2023-02-11T12:22:12.682Z,1.90
2023-02-11T12:25:29.478Z,1.77
2023-02-11T12:28:41.288Z,1.70
2023-02-11T12:31:58.867Z,1.70
2023-02-11T12:35:32.800Z,2.00
2023-02-11T12:38:52.171Z,1.60
2023-02-11T12:42:41.765Z,1.70
2023-02-11T12:46:16.001Z,1.80
2023-02-11T12:50:06.300Z,1.30
2023-02-11T12:53:28.243Z,1.60
2023-02-11T12:56:38.391Z,2.33
2023-02-11T12:59:50.696Z,2.00
2023-02-11T13:03:01.185Z,1.83
2023-02-11T13:06:09.687Z,2.33
2023-02-11T13:09:21.139Z,1.93
2023-02-11T13:12:58.704Z,2.17
2023-02-11T13:16:07.910Z,1.53
2023-02-11T13:19:21.525Z,1.70
2023-02-11T13:22:32.498Z,2.00
2023-02-11T13:25:44.709Z,1.90
2023-02-11T13:28:55.106Z,1.57
2023-02-11T13:32:08.735Z,1.70
2023-02-11T13:35:30.842Z,1.93
2023-02-11T13:38:36.166Z,1.90
2023-02-11T13:41:45.572Z,2.13
2023-02-11T13:44:50.466Z,2.47
2023-02-11T13:47:58.423Z,1.63
2023-02-11T13:51:06.511Z,1.63
2023-02-11T13:54:32.720Z,1.67
2023-02-11T13:57:40.961Z,2.17
2023-02-11T14:00:48.960Z,1.90
2023-02-11T14:04:37.721Z,2.37
2023-02-11T14:08:30.569Z,1.57
2023-02-11T14:11:50.033Z,2.10
2023-02-11T14:15:30.446Z,1.33
2023-02-11T14:18:40.191Z,1.60
2023-02-11T14:21:46.618Z,1.30
2023-02-11T14:24:54.876Z,1.90
2023-02-11T14:28:05.532Z,2.60
2023-02-11T14:31:15.744Z,1.60
2023-02-11T14:34:34.384Z,3.03
2023-02-11T14:37:50.304Z,3.10
2023-02-11T14:41:02.577Z,1.90
2023-02-11T14:44:13.780Z,1.77
2023-02-11T14:47:22.719Z,2.00
2023-02-11T14:50:29.904Z,1.60
2023-02-11T14:53:35.709Z,1.60
2023-02-11T14:56:40.851Z,1.67
2023-02-11T15:00:02.502Z,2.30
2023-02-11T15:03:24.349Z,1.30
2023-02-11T15:06:32.828Z,1.70
2023-02-11T15:09:42.932Z,1.90
2023-02-11T15:12:51.572Z,1.70
2023-02-11T15:15:59.773Z,1.40
2023-02-11T15:19:07.818Z,1.60
2023-02-11T15:22:20.419Z,1.47
2023-02-11T15:25:26.043Z,1.40
2023-02-11T15:28:33.330Z,1.60
2023-02-11T15:31:38.919Z,1.80
2023-02-11T15:34:46.032Z,1.53
2023-02-11T15:37:51.278Z,1.63
2023-02-11T15:41:00.848Z,1.50
2023-02-11T15:44:06.310Z,2.20
2023-02-11T15:47:15.236Z,1.53
2023-02-11T15:50:26.673Z,1.50
2023-02-11T15:53:34.838Z,1.57
2023-02-11T15:56:43.491Z,1.60
2023-02-11T15:59:50.217Z,1.67
2023-02-11T16:02:55.820Z,1.60
2023-02-11T16:06:21.598Z,1.70
2023-02-11T16:09:33.780Z,1.50
2023-02-11T16:12:39.197Z,1.80
2023-02-11T16:15:50.091Z,2.00
2023-02-11T16:19:06.256Z,1.73
2023-02-11T16:22:18.676Z,1.60
2023-02-11T16:25:24.472Z,1.40
2023-02-11T16:28:30.024Z,1.80
2023-02-11T16:31:38.364Z,1.50
2023-02-11T16:34:44.079Z,1.63
2023-02-11T16:37:51.083Z,1.77
2023-02-11T16:40:58.700Z,1.70
2023-02-11T16:44:03.972Z,2.07
2023-02-11T16:47:14.763Z,1.90
2023-02-11T16:50:24.205Z,1.80
2023-02-11T16:53:30.879Z,1.93
2023-02-11T16:56:36.046Z,1.83
2023-02-11T16:59:42.053Z,1.73
2023-02-11T17:02:50.093Z,1.70
2023-02-11T17:05:56.064Z,2.00
2023-02-11T17:09:02.503Z,2.10
2023-02-11T17:12:08.186Z,2.10
2023-02-11T17:15:13.560Z,2.13
2023-02-11T17:18:18.853Z,1.90
2023-02-11T17:21:27.613Z,2.00
2023-02-11T17:24:35.738Z,1.90
2023-02-11T17:27:45.006Z,2.27
2023-02-11T17:30:51.031Z,1.80
2023-02-11T17:33:55.903Z,1.70
2023-02-11T17:37:03.212Z,2.10
2023-02-11T17:40:13.724Z,2.00
2023-02-11T17:43:19.133Z,3.10
2023-02-11T17:46:23.984Z,2.83
2023-02-11T17:49:29.145Z,1.77
2023-02-11T17:52:34.310Z,2.20
2023-02-11T17:55:56.674Z,1.80
2023-02-11T17:59:02.520Z,2.00
2023-02-11T18:02:08.174Z,2.17
2023-02-11T18:05:13.549Z,2.13
2023-02-11T18:08:18.788Z,1.60
2023-02-11T18:11:26.076Z,1.43
2023-02-11T18:14:31.247Z,1.77
2023-02-11T18:17:36.501Z,1.83
2023-02-11T18:20:42.910Z,1.90
2023-02-11T18:23:48.059Z,1.50
2023-02-11T18:26:57.907Z,1.67
2023-02-11T18:30:03.152Z,1.60
2023-02-11T18:33:12.078Z,1.60
2023-02-11T18:36:17.512Z,1.73
2023-02-11T18:39:24.380Z,1.60
2023-02-11T18:42:34.415Z,1.90
2023-02-11T18:45:43.437Z,1.73
2023-02-11T18:48:50.130Z,1.90
2023-02-11T18:51:55.278Z,1.50
2023-02-11T18:55:00.102Z,1.40
2023-02-11T18:58:07.090Z,1.63
2023-02-11T19:01:14.545Z,1.50
2023-02-11T19:04:20.242Z,1.70
2023-02-11T19:07:25.619Z,2.30
2023-02-11T19:10:31.070Z,1.80
2023-02-11T19:13:37.591Z,1.77
2023-02-11T19:16:45.097Z,1.60
2023-02-11T19:19:50.506Z,1.90
2023-02-11T19:22:55.694Z,1.87
2023-02-11T19:26:01.448Z,1.57
2023-02-11T19:29:08.387Z,1.70
2023-02-11T19:32:13.546Z,1.70
2023-02-11T19:35:19.179Z,2.00
2023-02-11T19:38:24.292Z,1.80
2023-02-11T19:41:29.557Z,1.53
2023-02-11T19:44:36.337Z,1.57
2023-02-11T19:47:41.649Z,1.87
2023-02-11T19:50:47.037Z,1.77
2023-02-11T19:53:52.300Z,1.83
2023-02-11T19:56:58.020Z,1.60
2023-02-11T20:00:04.972Z,1.80
2023-02-11T20:03:31.415Z,1.80
2023-02-11T20:06:37.063Z,1.77
2023-02-11T20:09:42.708Z,1.50
2023-02-11T20:12:48.189Z,1.83
2023-02-11T20:15:56.148Z,1.60
2023-02-11T20:19:01.665Z,1.83
2023-02-11T20:22:07.251Z,1.37
2023-02-11T20:25:13.290Z,1.70
2023-02-11T20:28:21.394Z,1.47
2023-02-11T20:31:29.903Z,2.30
2023-02-11T20:34:35.362Z,2.70
2023-02-11T20:37:43.774Z,1.90
2023-02-11T20:40:49.547Z,1.83
2023-02-11T20:43:56.342Z,1.87
2023-02-11T20:47:02.875Z,1.50
2023-02-11T20:50:09.437Z,1.77
2023-02-11T20:53:15.792Z,1.90
2023-02-11T20:56:23.831Z,1.87
2023-02-11T20:59:29.073Z,1.70
2023-02-11T21:02:35.788Z,1.60
2023-02-11T21:05:40.535Z,1.73
2023-02-11T21:08:45.835Z,1.77
2023-02-11T21:11:52.124Z,1.70
2023-02-11T21:14:58.092Z,1.90
2023-02-11T21:18:04.923Z,1.60
2023-02-11T21:21:10.021Z,1.80
2023-02-11T21:24:15.230Z,1.80
2023-02-11T21:27:20.410Z,1.80
2023-02-11T21:30:25.426Z,1.90
2023-02-11T21:33:33.637Z,1.80
2023-02-11T21:36:38.775Z,1.90
2023-02-11T21:39:44.383Z,1.80
2023-02-11T21:42:49.449Z,2.13
2023-02-11T21:45:54.969Z,2.20
2023-02-11T21:49:01.704Z,2.97
2023-02-11T21:52:07.215Z,4.47
2023-02-11T21:55:15.290Z,4.47
2023-02-11T21:58:20.522Z,4.80
2023-02-11T22:01:27.008Z,4.80
2023-02-11T22:04:35.898Z,5.23
2023-02-11T22:07:41.101Z,4.67
2023-02-11T22:10:46.450Z,4.80
2023-02-11T22:13:56.412Z,4.67
2023-02-11T22:17:01.769Z,4.93
2023-02-11T22:20:10.217Z,5.50
2023-02-11T22:23:15.561Z,5.13
2023-02-11T22:26:23.588Z,4.90
2023-02-11T22:29:28.886Z,4.90
2023-02-11T22:32:33.978Z,4.80
2023-02-11T22:35:40.496Z,4.80
2023-02-11T22:38:45.700Z,5.03
2023-02-11T22:41:51.241Z,4.17
2023-02-11T22:44:56.069Z,4.33
2023-02-11T22:48:01.134Z,4.10
2023-02-11T22:51:09.200Z,4.37
2023-02-11T22:54:16.534Z,4.70
2023-02-11T22:57:21.685Z,4.57
2023-02-11T23:00:28.669Z,3.87
2023-02-11T23:03:34.514Z,4.10
2023-02-11T23:06:42.041Z,3.70
2023-02-11T23:09:47.187Z,3.43
2023-02-11T23:12:52.370Z,3.83
2023-02-11T23:15:57.615Z,3.17
2023-02-11T23:19:04.615Z,3.60
2023-02-11T23:22:11.210Z,3.30
2023-02-11T23:25:16.474Z,3.80
2023-02-11T23:28:21.790Z,3.37
2023-02-11T23:31:28.895Z,3.40
2023-02-11T23:34:34.060Z,3.87
2023-02-11T23:37:41.460Z,3.57
2023-02-11T23:40:46.684Z,3.60
2023-02-11T23:43:52.578Z,4.10
2023-02-11T23:46:57.628Z,4.33
2023-02-11T23:50:02.779Z,4.00
2023-02-11T23:53:09.386Z,4.43
2023-02-11T23:56:18.436Z,3.87
2023-02-11T23:59:23.535Z,3.40
